sensor_id;sensor_type;location;lat;lon;timestamp;P1;durP1;ratioP1;P2;durP2;ratioP2
53879;SDS011;39791;53.184;5.486;2023-07-20T00:01:07;24.67;;;22.80;;
53879;SDS011;39791;53.184;5.486;2023-07-20T00:03:33;23.73;;;22.00;;
53879;SDS011;39791;53.184;5.486;2023-07-20T00:05:58;21.02;;;19.52;;
53879;SDS011;39791;53.184;5.486;2023-07-20T00:08:24;24.30;;;22.33;;
53879;SDS011;39791;53.184;5.486;2023-07-20T00:10:49;17.50;;;16.23;;
53879;SDS011;39791;53.184;5.486;2023-07-20T00:13:15;17.75;;;16.40;;
53879;SDS011;39791;53.184;5.486;2023-07-20T00:15:43;19.05;;;17.67;;
53879;SDS011;39791;53.184;5.486;2023-07-20T00:18:09;22.10;;;20.42;;
53879;SDS011;39791;53.184;5.486;2023-07-20T00:20:34;20.40;;;18.80;;
53879;SDS011;39791;53.184;5.486;2023-07-20T00:23:00;21.63;;;19.92;;
53879;SDS011;39791;53.184;5.486;2023-07-20T00:25:26;21.23;;;19.50;;
53879;SDS011;39791;53.184;5.486;2023-07-20T00:27:54;20.45;;;19.05;;
53879;SDS011;39791;53.184;5.486;2023-07-20T00:30:20;22.35;;;20.65;;
53879;SDS011;39791;53.184;5.486;2023-07-20T00:32:45;22.70;;;20.80;;
53879;SDS011;39791;53.184;5.486;2023-07-20T00:35:11;23.38;;;21.65;;
53879;SDS011;39791;53.184;5.486;2023-07-20T00:37:37;23.05;;;21.30;;
53879;SDS011;39791;53.184;5.486;2023-07-20T00:40:03;22.60;;;21.00;;
53879;SDS011;39791;53.184;5.486;2023-07-20T00:42:30;18.88;;;17.58;;
53879;SDS011;39791;53.184;5.486;2023-07-20T00:44:56;20.08;;;18.58;;
53879;SDS011;39791;53.184;5.486;2023-07-20T00:47:21;21.33;;;19.73;;
53879;SDS011;39791;53.184;5.486;2023-07-20T00:49:47;22.70;;;21.10;;
53879;SDS011;39791;53.184;5.486;2023-07-20T00:52:13;22.63;;;20.92;;
53879;SDS011;39791;53.184;5.486;2023-07-20T00:54:40;20.92;;;19.27;;
53879;SDS011;39791;53.184;5.486;2023-07-20T00:57:06;25.35;;;23.35;;
53879;SDS011;39791;53.184;5.486;2023-07-20T00:59:33;23.70;;;21.90;;
53879;SDS011;39791;53.184;5.486;2023-07-20T01:01:59;25.92;;;23.77;;
53879;SDS011;39791;53.184;5.486;2023-07-20T01:04:25;21.88;;;20.27;;
53879;SDS011;39791;53.184;5.486;2023-07-20T01:12:08;28.33;;;25.92;;
53879;SDS011;39791;53.184;5.486;2023-07-20T01:14:37;29.60;;;27.30;;
53879;SDS011;39791;53.184;5.486;2023-07-20T01:17:03;28.42;;;26.00;;
53879;SDS011;39791;53.184;5.486;2023-07-20T01:19:29;26.23;;;24.02;;
53879;SDS011;39791;53.184;5.486;2023-07-20T01:21:57;22.17;;;20.13;;
53879;SDS011;39791;53.184;5.486;2023-07-20T01:30:50;27.40;;;25.30;;
53879;SDS011;39791;53.184;5.486;2023-07-20T01:33:21;25.13;;;23.23;;
53879;SDS011;39791;53.184;5.486;2023-07-20T01:35:53;22.40;;;20.73;;
53879;SDS011;39791;53.184;5.486;2023-07-20T01:38:21;25.23;;;23.33;;
53879;SDS011;39791;53.184;5.486;2023-07-20T01:40:48;24.65;;;22.65;;
53879;SDS011;39791;53.184;5.486;2023-07-20T01:43:15;25.60;;;23.58;;
53879;SDS011;39791;53.184;5.486;2023-07-20T01:45:41;25.63;;;23.50;;
53879;SDS011;39791;53.184;5.486;2023-07-20T01:48:07;26.70;;;24.35;;
53879;SDS011;39791;53.184;5.486;2023-07-20T01:50:32;28.63;;;26.23;;
53879;SDS011;39791;53.184;5.486;2023-07-20T01:52:59;28.00;;;25.63;;
53879;SDS011;39791;53.184;5.486;2023-07-20T01:55:25;29.17;;;26.40;;
53879;SDS011;39791;53.184;5.486;2023-07-20T01:57:51;29.33;;;26.63;;
53879;SDS011;39791;53.184;5.486;2023-07-20T02:00:16;26.58;;;24.48;;
53879;SDS011;39791;53.184;5.486;2023-07-20T02:02:46;28.25;;;25.83;;
53879;SDS011;39791;53.184;5.486;2023-07-20T02:05:12;25.00;;;23.02;;
53879;SDS011;39791;53.184;5.486;2023-07-20T02:07:37;23.23;;;21.42;;
53879;SDS011;39791;53.184;5.486;2023-07-20T02:10:04;28.50;;;26.38;;
53879;SDS011;39791;53.184;5.486;2023-07-20T02:12:30;22.98;;;21.20;;
53879;SDS011;39791;53.184;5.486;2023-07-20T02:14:56;23.67;;;21.88;;
53879;SDS011;39791;53.184;5.486;2023-07-20T02:17:21;24.83;;;22.85;;
53879;SDS011;39791;53.184;5.486;2023-07-20T02:19:49;25.23;;;23.08;;
53879;SDS011;39791;53.184;5.486;2023-07-20T02:22:17;27.55;;;25.42;;
53879;SDS011;39791;53.184;5.486;2023-07-20T02:24:43;27.08;;;24.67;;
53879;SDS011;39791;53.184;5.486;2023-07-20T02:27:08;29.45;;;26.77;;
53879;SDS011;39791;53.184;5.486;2023-07-20T02:29:34;27.58;;;25.38;;
53879;SDS011;39791;53.184;5.486;2023-07-20T02:32:00;27.75;;;25.52;;
53879;SDS011;39791;53.184;5.486;2023-07-20T02:34:26;23.83;;;21.83;;
53879;SDS011;39791;53.184;5.486;2023-07-20T02:36:52;25.20;;;22.67;;
53879;SDS011;39791;53.184;5.486;2023-07-20T02:39:17;25.10;;;23.20;;
53879;SDS011;39791;53.184;5.486;2023-07-20T02:41:43;27.95;;;25.85;;
53879;SDS011;39791;53.184;5.486;2023-07-20T02:44:09;27.90;;;25.45;;
53879;SDS011;39791;53.184;5.486;2023-07-20T02:46:34;26.17;;;24.17;;
53879;SDS011;39791;53.184;5.486;2023-07-20T02:49:00;24.88;;;22.80;;
53879;SDS011;39791;53.184;5.486;2023-07-20T02:51:26;26.13;;;23.80;;
53879;SDS011;39791;53.184;5.486;2023-07-20T02:53:51;20.20;;;18.80;;
53879;SDS011;39791;53.184;5.486;2023-07-20T02:56:17;22.17;;;20.58;;
53879;SDS011;39791;53.184;5.486;2023-07-20T02:58:43;21.10;;;19.50;;
53879;SDS011;39791;53.184;5.486;2023-07-20T03:01:09;26.92;;;24.70;;
53879;SDS011;39791;53.184;5.486;2023-07-20T03:03:36;25.20;;;23.30;;
53879;SDS011;39791;53.184;5.486;2023-07-20T03:06:04;30.10;;;27.17;;
53879;SDS011;39791;53.184;5.486;2023-07-20T03:08:30;29.70;;;26.90;;
53879;SDS011;39791;53.184;5.486;2023-07-20T03:10:55;27.92;;;25.75;;
53879;SDS011;39791;53.184;5.486;2023-07-20T03:13:21;25.90;;;24.08;;
53879;SDS011;39791;53.184;5.486;2023-07-20T03:15:47;29.95;;;27.05;;
53879;SDS011;39791;53.184;5.486;2023-07-20T03:18:12;30.98;;;28.23;;
53879;SDS011;39791;53.184;5.486;2023-07-20T03:20:38;30.45;;;28.02;;
53879;SDS011;39791;53.184;5.486;2023-07-20T03:23:04;29.10;;;26.60;;
53879;SDS011;39791;53.184;5.486;2023-07-20T03:25:29;28.88;;;26.58;;
53879;SDS011;39791;53.184;5.486;2023-07-20T03:27:55;28.60;;;26.27;;
53879;SDS011;39791;53.184;5.486;2023-07-20T03:30:20;28.98;;;26.58;;
53879;SDS011;39791;53.184;5.486;2023-07-20T03:32:46;30.42;;;27.67;;
53879;SDS011;39791;53.184;5.486;2023-07-20T03:35:12;30.35;;;27.58;;
53879;SDS011;39791;53.184;5.486;2023-07-20T03:37:37;29.80;;;27.38;;
53879;SDS011;39791;53.184;5.486;2023-07-20T03:40:03;29.67;;;27.15;;
53879;SDS011;39791;53.184;5.486;2023-07-20T03:42:30;31.75;;;28.80;;
53879;SDS011;39791;53.184;5.486;2023-07-20T03:44:55;32.50;;;29.63;;
53879;SDS011;39791;53.184;5.486;2023-07-20T03:47:21;32.22;;;29.73;;
53879;SDS011;39791;53.184;5.486;2023-07-20T03:49:47;34.95;;;32.15;;
53879;SDS011;39791;53.184;5.486;2023-07-20T03:52:12;34.00;;;31.13;;
53879;SDS011;39791;53.184;5.486;2023-07-20T03:54:38;33.53;;;30.73;;
53879;SDS011;39791;53.184;5.486;2023-07-20T03:57:03;33.65;;;30.95;;
53879;SDS011;39791;53.184;5.486;2023-07-20T03:59:29;31.85;;;29.38;;
53879;SDS011;39791;53.184;5.486;2023-07-20T04:01:55;30.83;;;28.35;;
53879;SDS011;39791;53.184;5.486;2023-07-20T04:04:20;31.90;;;29.23;;
53879;SDS011;39791;53.184;5.486;2023-07-20T04:06:46;30.02;;;27.60;;
53879;SDS011;39791;53.184;5.486;2023-07-20T04:09:11;28.27;;;25.88;;
53879;SDS011;39791;53.184;5.486;2023-07-20T04:11:37;30.88;;;28.38;;
53879;SDS011;39791;53.184;5.486;2023-07-20T04:14:03;31.05;;;28.75;;
53879;SDS011;39791;53.184;5.486;2023-07-20T04:16:29;28.33;;;26.23;;
53879;SDS011;39791;53.184;5.486;2023-07-20T04:18:55;25.83;;;23.83;;
53879;SDS011;39791;53.184;5.486;2023-07-20T04:21:21;30.65;;;28.05;;
53879;SDS011;39791;53.184;5.486;2023-07-20T04:23:47;28.10;;;25.90;;
53879;SDS011;39791;53.184;5.486;2023-07-20T04:26:13;33.65;;;30.27;;
53879;SDS011;39791;53.184;5.486;2023-07-20T04:28:40;32.50;;;29.48;;
53879;SDS011;39791;53.184;5.486;2023-07-20T04:31:13;31.55;;;29.05;;
53879;SDS011;39791;53.184;5.486;2023-07-20T04:33:40;32.72;;;30.02;;
53879;SDS011;39791;53.184;5.486;2023-07-20T04:36:06;32.17;;;29.67;;
53879;SDS011;39791;53.184;5.486;2023-07-20T04:38:32;28.08;;;25.70;;
53879;SDS011;39791;53.184;5.486;2023-07-20T04:40:58;25.75;;;23.83;;
53879;SDS011;39791;53.184;5.486;2023-07-20T04:43:23;26.70;;;24.65;;
53879;SDS011;39791;53.184;5.486;2023-07-20T04:45:49;25.55;;;23.38;;
53879;SDS011;39791;53.184;5.486;2023-07-20T04:48:15;23.42;;;21.73;;
53879;SDS011;39791;53.184;5.486;2023-07-20T04:50:42;24.13;;;22.25;;
53879;SDS011;39791;53.184;5.486;2023-07-20T04:53:09;22.13;;;20.63;;
53879;SDS011;39791;53.184;5.486;2023-07-20T04:55:36;16.83;;;15.52;;
53879;SDS011;39791;53.184;5.486;2023-07-20T04:58:03;20.92;;;19.05;;
53879;SDS011;39791;53.184;5.486;2023-07-20T05:00:29;19.15;;;17.65;;
53879;SDS011;39791;53.184;5.486;2023-07-20T05:02:55;21.13;;;19.48;;
53879;SDS011;39791;53.184;5.486;2023-07-20T05:05:21;23.15;;;21.45;;
53879;SDS011;39791;53.184;5.486;2023-07-20T05:07:47;25.30;;;23.30;;
53879;SDS011;39791;53.184;5.486;2023-07-20T05:10:12;24.80;;;23.00;;
53879;SDS011;39791;53.184;5.486;2023-07-20T05:12:38;24.25;;;22.15;;
53879;SDS011;39791;53.184;5.486;2023-07-20T05:15:04;26.42;;;24.48;;
53879;SDS011;39791;53.184;5.486;2023-07-20T05:17:30;26.55;;;24.45;;
53879;SDS011;39791;53.184;5.486;2023-07-20T05:19:55;26.63;;;24.65;;
53879;SDS011;39791;53.184;5.486;2023-07-20T05:22:21;28.02;;;25.75;;
53879;SDS011;39791;53.184;5.486;2023-07-20T05:24:47;27.02;;;24.90;;
53879;SDS011;39791;53.184;5.486;2023-07-20T05:27:12;25.63;;;23.73;;
53879;SDS011;39791;53.184;5.486;2023-07-20T05:29:43;25.40;;;23.33;;
53879;SDS011;39791;53.184;5.486;2023-07-20T05:32:12;25.52;;;23.33;;
53879;SDS011;39791;53.184;5.486;2023-07-20T05:34:38;26.88;;;24.67;;
53879;SDS011;39791;53.184;5.486;2023-07-20T05:37:03;21.98;;;20.17;;
53879;SDS011;39791;53.184;5.486;2023-07-20T05:39:29;21.08;;;19.58;;
53879;SDS011;39791;53.184;5.486;2023-07-20T05:41:56;21.88;;;20.20;;
53879;SDS011;39791;53.184;5.486;2023-07-20T05:44:22;17.60;;;16.27;;
53879;SDS011;39791;53.184;5.486;2023-07-20T05:46:47;18.83;;;17.20;;
53879;SDS011;39791;53.184;5.486;2023-07-20T05:49:13;13.05;;;11.95;;
53879;SDS011;39791;53.184;5.486;2023-07-20T05:51:39;13.85;;;12.80;;
53879;SDS011;39791;53.184;5.486;2023-07-20T05:54:05;13.65;;;12.65;;
53879;SDS011;39791;53.184;5.486;2023-07-20T05:56:30;14.95;;;13.65;;
53879;SDS011;39791;53.184;5.486;2023-07-20T05:58:56;14.07;;;12.90;;
53879;SDS011;39791;53.184;5.486;2023-07-20T06:01:21;10.93;;;10.00;;
53879;SDS011;39791;53.184;5.486;2023-07-20T06:03:47;10.20;;;9.30;;
53879;SDS011;39791;53.184;5.486;2023-07-20T06:06:13;7.57;;;6.97;;
53879;SDS011;39791;53.184;5.486;2023-07-20T06:08:40;10.07;;;9.27;;
53879;SDS011;39791;53.184;5.486;2023-07-20T06:11:05;8.88;;;8.07;;
53879;SDS011;39791;53.184;5.486;2023-07-20T06:13:31;8.23;;;7.35;;
53879;SDS011;39791;53.184;5.486;2023-07-20T06:15:56;8.05;;;6.82;;
53879;SDS011;39791;53.184;5.486;2023-07-20T06:18:22;11.07;;;10.18;;
53879;SDS011;39791;53.184;5.486;2023-07-20T06:20:49;9.02;;;8.10;;
53879;SDS011;39791;53.184;5.486;2023-07-20T06:23:16;6.80;;;6.05;;
53879;SDS011;39791;53.184;5.486;2023-07-20T06:25:42;7.53;;;6.82;;
53879;SDS011;39791;53.184;5.486;2023-07-20T06:28:07;8.60;;;7.72;;
53879;SDS011;39791;53.184;5.486;2023-07-20T06:30:33;7.72;;;7.00;;
53879;SDS011;39791;53.184;5.486;2023-07-20T06:32:59;8.85;;;6.88;;
53879;SDS011;39791;53.184;5.486;2023-07-20T06:35:28;7.63;;;6.90;;
53879;SDS011;39791;53.184;5.486;2023-07-20T06:37:54;10.52;;;9.60;;
53879;SDS011;39791;53.184;5.486;2023-07-20T06:40:19;10.05;;;9.15;;
53879;SDS011;39791;53.184;5.486;2023-07-20T06:42:46;12.75;;;11.60;;
53879;SDS011;39791;53.184;5.486;2023-07-20T06:45:11;10.75;;;9.85;;
53879;SDS011;39791;53.184;5.486;2023-07-20T06:47:40;11.27;;;9.50;;
53879;SDS011;39791;53.184;5.486;2023-07-20T06:50:06;12.73;;;11.43;;
53879;SDS011;39791;53.184;5.486;2023-07-20T06:52:32;10.05;;;9.25;;
53879;SDS011;39791;53.184;5.486;2023-07-20T06:54:58;9.88;;;8.98;;
53879;SDS011;39791;53.184;5.486;2023-07-20T06:57:24;8.63;;;7.82;;
53879;SDS011;39791;53.184;5.486;2023-07-20T06:59:50;8.35;;;7.65;;
53879;SDS011;39791;53.184;5.486;2023-07-20T07:02:16;9.75;;;8.88;;
53879;SDS011;39791;53.184;5.486;2023-07-20T07:04:42;9.80;;;8.90;;
53879;SDS011;39791;53.184;5.486;2023-07-20T07:07:08;8.10;;;7.28;;
53879;SDS011;39791;53.184;5.486;2023-07-20T07:09:34;9.25;;;7.20;;
53879;SDS011;39791;53.184;5.486;2023-07-20T07:12:00;7.40;;;6.60;;
53879;SDS011;39791;53.184;5.486;2023-07-20T07:14:25;6.88;;;6.38;;
53879;SDS011;39791;53.184;5.486;2023-07-20T07:16:51;8.18;;;7.47;;
53879;SDS011;39791;53.184;5.486;2023-07-20T07:19:17;8.63;;;6.97;;
53879;SDS011;39791;53.184;5.486;2023-07-20T07:21:42;10.35;;;8.07;;
53879;SDS011;39791;53.184;5.486;2023-07-20T07:24:08;11.07;;;9.95;;
53879;SDS011;39791;53.184;5.486;2023-07-20T07:26:35;7.90;;;7.20;;
53879;SDS011;39791;53.184;5.486;2023-07-20T07:29:01;10.20;;;6.10;;
53879;SDS011;39791;53.184;5.486;2023-07-20T07:31:28;7.85;;;7.05;;
53879;SDS011;39791;53.184;5.486;2023-07-20T07:33:55;8.20;;;6.55;;
53879;SDS011;39791;53.184;5.486;2023-07-20T07:36:21;7.40;;;5.88;;
53879;SDS011;39791;53.184;5.486;2023-07-20T07:38:49;6.68;;;6.13;;
53879;SDS011;39791;53.184;5.486;2023-07-20T07:41:15;7.68;;;6.97;;
53879;SDS011;39791;53.184;5.486;2023-07-20T07:43:40;10.80;;;7.55;;
53879;SDS011;39791;53.184;5.486;2023-07-20T07:46:06;12.88;;;6.40;;
53879;SDS011;39791;53.184;5.486;2023-07-20T07:48:32;8.40;;;7.70;;
53879;SDS011;39791;53.184;5.486;2023-07-20T07:50:57;10.35;;;8.77;;
53879;SDS011;39791;53.184;5.486;2023-07-20T07:53:23;12.05;;;9.57;;
53879;SDS011;39791;53.184;5.486;2023-07-20T07:55:51;8.65;;;8.05;;
53879;SDS011;39791;53.184;5.486;2023-07-20T07:58:16;9.80;;;8.82;;
53879;SDS011;39791;53.184;5.486;2023-07-20T08:00:42;10.50;;;9.13;;
53879;SDS011;39791;53.184;5.486;2023-07-20T08:03:09;7.63;;;6.80;;
53879;SDS011;39791;53.184;5.486;2023-07-20T08:05:35;8.65;;;7.53;;
53879;SDS011;39791;53.184;5.486;2023-07-20T08:08:01;8.63;;;6.85;;
53879;SDS011;39791;53.184;5.486;2023-07-20T08:10:28;7.47;;;6.30;;
53879;SDS011;39791;53.184;5.486;2023-07-20T08:12:54;9.75;;;7.07;;
53879;SDS011;39791;53.184;5.486;2023-07-20T08:15:20;9.85;;;6.93;;
53879;SDS011;39791;53.184;5.486;2023-07-20T08:17:45;8.00;;;6.82;;
53879;SDS011;39791;53.184;5.486;2023-07-20T08:20:14;7.95;;;6.75;;
53879;SDS011;39791;53.184;5.486;2023-07-20T08:22:41;6.75;;;6.05;;
53879;SDS011;39791;53.184;5.486;2023-07-20T08:25:07;8.60;;;7.80;;
53879;SDS011;39791;53.184;5.486;2023-07-20T08:27:33;8.60;;;7.50;;
53879;SDS011;39791;53.184;5.486;2023-07-20T08:30:00;8.40;;;7.25;;
53879;SDS011;39791;53.184;5.486;2023-07-20T08:32:25;11.65;;;10.57;;
53879;SDS011;39791;53.184;5.486;2023-07-20T08:34:51;15.27;;;10.10;;
53879;SDS011;39791;53.184;5.486;2023-07-20T08:37:17;12.95;;;11.65;;
53879;SDS011;39791;53.184;5.486;2023-07-20T08:39:43;14.40;;;12.30;;
53879;SDS011;39791;53.184;5.486;2023-07-20T08:42:09;11.07;;;9.65;;
53879;SDS011;39791;53.184;5.486;2023-07-20T08:44:36;10.23;;;7.95;;
53879;SDS011;39791;53.184;5.486;2023-07-20T08:47:03;9.55;;;8.55;;
53879;SDS011;39791;53.184;5.486;2023-07-20T08:49:34;8.57;;;7.68;;
53879;SDS011;39791;53.184;5.486;2023-07-20T08:51:59;9.00;;;8.15;;
53879;SDS011;39791;53.184;5.486;2023-07-20T08:54:29;9.88;;;8.18;;
53879;SDS011;39791;53.184;5.486;2023-07-20T08:57:02;8.63;;;7.40;;
53879;SDS011;39791;53.184;5.486;2023-07-20T08:59:29;13.48;;;7.95;;
53879;SDS011;39791;53.184;5.486;2023-07-20T09:01:56;9.90;;;7.30;;
53879;SDS011;39791;53.184;5.486;2023-07-20T09:04:23;9.10;;;7.70;;
53879;SDS011;39791;53.184;5.486;2023-07-20T09:06:49;8.55;;;7.30;;
53879;SDS011;39791;53.184;5.486;2023-07-20T09:09:15;6.78;;;5.80;;
53879;SDS011;39791;53.184;5.486;2023-07-20T09:11:41;7.47;;;6.05;;
53879;SDS011;39791;53.184;5.486;2023-07-20T09:14:08;8.75;;;6.40;;
53879;SDS011;39791;53.184;5.486;2023-07-20T09:16:46;11.32;;;5.63;;
53879;SDS011;39791;53.184;5.486;2023-07-20T09:19:17;6.57;;;4.72;;
53879;SDS011;39791;53.184;5.486;2023-07-20T09:21:46;8.75;;;6.25;;
53879;SDS011;39791;53.184;5.486;2023-07-20T09:24:14;5.95;;;4.45;;
53879;SDS011;39791;53.184;5.486;2023-07-20T09:26:42;6.30;;;4.70;;
53879;SDS011;39791;53.184;5.486;2023-07-20T09:29:10;8.55;;;7.38;;
53879;SDS011;39791;53.184;5.486;2023-07-20T09:31:36;25.60;;;8.50;;
53879;SDS011;39791;53.184;5.486;2023-07-20T09:34:02;7.30;;;6.50;;
53879;SDS011;39791;53.184;5.486;2023-07-20T09:36:28;16.15;;;9.32;;
53879;SDS011;39791;53.184;5.486;2023-07-20T09:38:54;8.40;;;7.60;;
53879;SDS011;39791;53.184;5.486;2023-07-20T09:41:20;10.02;;;9.13;;
53879;SDS011;39791;53.184;5.486;2023-07-20T09:43:46;10.45;;;9.45;;
53879;SDS011;39791;53.184;5.486;2023-07-20T09:46:12;9.32;;;8.32;;
53879;SDS011;39791;53.184;5.486;2023-07-20T09:48:38;8.80;;;6.63;;
53879;SDS011;39791;53.184;5.486;2023-07-20T09:51:04;12.30;;;11.13;;
53879;SDS011;39791;53.184;5.486;2023-07-20T09:53:32;13.10;;;11.32;;
53879;SDS011;39791;53.184;5.486;2023-07-20T09:55:58;10.75;;;9.23;;
53879;SDS011;39791;53.184;5.486;2023-07-20T09:58:25;11.25;;;7.47;;
53879;SDS011;39791;53.184;5.486;2023-07-20T10:00:52;9.45;;;6.63;;
53879;SDS011;39791;53.184;5.486;2023-07-20T10:03:22;9.88;;;8.98;;
53879;SDS011;39791;53.184;5.486;2023-07-20T10:05:54;5.88;;;5.13;;
53879;SDS011;39791;53.184;5.486;2023-07-20T10:08:32;10.75;;;9.75;;
53879;SDS011;39791;53.184;5.486;2023-07-20T10:11:00;9.68;;;8.85;;
53879;SDS011;39791;53.184;5.486;2023-07-20T10:13:27;11.60;;;10.60;;
53879;SDS011;39791;53.184;5.486;2023-07-20T10:15:57;12.27;;;9.70;;
53879;SDS011;39791;53.184;5.486;2023-07-20T10:18:46;10.70;;;9.60;;
53879;SDS011;39791;53.184;5.486;2023-07-20T10:21:29;10.20;;;9.20;;
53879;SDS011;39791;53.184;5.486;2023-07-20T10:23:58;10.25;;;7.82;;
53879;SDS011;39791;53.184;5.486;2023-07-20T10:26:26;7.35;;;6.00;;
53879;SDS011;39791;53.184;5.486;2023-07-20T10:28:51;7.43;;;6.60;;
53879;SDS011;39791;53.184;5.486;2023-07-20T10:31:18;8.35;;;7.00;;
53879;SDS011;39791;53.184;5.486;2023-07-20T10:33:45;7.25;;;5.85;;
53879;SDS011;39791;53.184;5.486;2023-07-20T10:36:11;6.15;;;4.57;;
53879;SDS011;39791;53.184;5.486;2023-07-20T10:41:16;8.63;;;7.13;;
53879;SDS011;39791;53.184;5.486;2023-07-20T10:43:43;15.35;;;13.75;;
53879;SDS011;39791;53.184;5.486;2023-07-20T10:46:13;11.00;;;10.02;;
53879;SDS011;39791;53.184;5.486;2023-07-20T10:51:24;9.60;;;8.80;;
53879;SDS011;39791;53.184;5.486;2023-07-20T10:53:50;8.48;;;6.57;;
53879;SDS011;39791;53.184;5.486;2023-07-20T10:56:21;7.43;;;6.32;;
53879;SDS011;39791;53.184;5.486;2023-07-20T10:58:48;7.05;;;6.38;;
53879;SDS011;39791;53.184;5.486;2023-07-20T11:01:14;9.30;;;8.23;;
53879;SDS011;39791;53.184;5.486;2023-07-20T11:03:42;6.90;;;6.20;;
53879;SDS011;39791;53.184;5.486;2023-07-20T11:06:29;6.63;;;4.85;;
53879;SDS011;39791;53.184;5.486;2023-07-20T11:09:03;7.95;;;4.45;;
53879;SDS011;39791;53.184;5.486;2023-07-20T11:16:41;5.30;;;3.42;;
53879;SDS011;39791;53.184;5.486;2023-07-20T11:21:41;7.90;;;4.13;;
53879;SDS011;39791;53.184;5.486;2023-07-20T11:24:08;5.45;;;2.85;;
53879;SDS011;39791;53.184;5.486;2023-07-20T11:26:45;7.22;;;3.83;;
53879;SDS011;39791;53.184;5.486;2023-07-20T11:29:12;3.30;;;2.55;;
53879;SDS011;39791;53.184;5.486;2023-07-20T11:31:38;4.18;;;2.80;;
53879;SDS011;39791;53.184;5.486;2023-07-20T11:34:05;8.18;;;3.55;;
53879;SDS011;39791;53.184;5.486;2023-07-20T11:36:33;3.67;;;2.58;;
53879;SDS011;39791;53.184;5.486;2023-07-20T11:38:59;5.38;;;3.17;;
53879;SDS011;39791;53.184;5.486;2023-07-20T11:41:25;7.97;;;4.45;;
53879;SDS011;39791;53.184;5.486;2023-07-20T11:43:51;6.03;;;2.75;;
53879;SDS011;39791;53.184;5.486;2023-07-20T11:46:18;3.85;;;2.78;;
53879;SDS011;39791;53.184;5.486;2023-07-20T11:48:44;4.32;;;2.75;;
53879;SDS011;39791;53.184;5.486;2023-07-20T11:51:13;7.88;;;2.80;;
53879;SDS011;39791;53.184;5.486;2023-07-20T11:53:43;4.63;;;3.03;;
53879;SDS011;39791;53.184;5.486;2023-07-20T11:56:11;4.15;;;2.70;;
53879;SDS011;39791;53.184;5.486;2023-07-20T11:58:41;4.65;;;2.80;;
53879;SDS011;39791;53.184;5.486;2023-07-20T12:01:11;4.30;;;2.70;;
53879;SDS011;39791;53.184;5.486;2023-07-20T12:03:42;5.63;;;2.72;;
53879;SDS011;39791;53.184;5.486;2023-07-20T12:06:09;4.30;;;2.58;;
53879;SDS011;39791;53.184;5.486;2023-07-20T12:08:37;3.65;;;2.40;;
53879;SDS011;39791;53.184;5.486;2023-07-20T12:11:05;4.85;;;2.42;;
53879;SDS011;39791;53.184;5.486;2023-07-20T12:16:06;4.72;;;2.47;;
53879;SDS011;39791;53.184;5.486;2023-07-20T12:18:36;4.93;;;2.47;;
53879;SDS011;39791;53.184;5.486;2023-07-20T12:21:02;4.15;;;2.67;;
53879;SDS011;39791;53.184;5.486;2023-07-20T12:23:34;3.75;;;2.35;;
53879;SDS011;39791;53.184;5.486;2023-07-20T12:26:06;3.88;;;2.47;;
53879;SDS011;39791;53.184;5.486;2023-07-20T12:28:33;6.97;;;2.70;;
53879;SDS011;39791;53.184;5.486;2023-07-20T12:31:00;4.38;;;2.92;;
53879;SDS011;39791;53.184;5.486;2023-07-20T12:33:26;6.03;;;2.70;;
53879;SDS011;39791;53.184;5.486;2023-07-20T12:35:51;4.32;;;2.45;;
53879;SDS011;39791;53.184;5.486;2023-07-20T12:38:20;4.80;;;2.80;;
53879;SDS011;39791;53.184;5.486;2023-07-20T12:40:47;6.32;;;3.00;;
53879;SDS011;39791;53.184;5.486;2023-07-20T12:43:12;3.00;;;2.40;;
53879;SDS011;39791;53.184;5.486;2023-07-20T12:45:38;4.32;;;2.47;;
53879;SDS011;39791;53.184;5.486;2023-07-20T12:48:04;4.30;;;2.40;;
53879;SDS011;39791;53.184;5.486;2023-07-20T12:50:30;4.00;;;2.50;;
53879;SDS011;39791;53.184;5.486;2023-07-20T12:52:55;4.05;;;2.33;;
53879;SDS011;39791;53.184;5.486;2023-07-20T12:55:21;6.32;;;2.80;;
53879;SDS011;39791;53.184;5.486;2023-07-20T12:57:47;4.00;;;2.28;;
53879;SDS011;39791;53.184;5.486;2023-07-20T13:00:13;4.03;;;2.30;;
53879;SDS011;39791;53.184;5.486;2023-07-20T13:02:39;4.25;;;2.30;;
53879;SDS011;39791;53.184;5.486;2023-07-20T13:05:06;4.97;;;2.65;;
53879;SDS011;39791;53.184;5.486;2023-07-20T13:07:33;5.93;;;2.65;;
53879;SDS011;39791;53.184;5.486;2023-07-20T13:10:00;4.00;;;2.13;;
53879;SDS011;39791;53.184;5.486;2023-07-20T13:12:29;4.60;;;2.80;;
53879;SDS011;39791;53.184;5.486;2023-07-20T13:14:56;6.00;;;3.22;;
53879;SDS011;39791;53.184;5.486;2023-07-20T13:17:25;4.10;;;2.15;;
53879;SDS011;39791;53.184;5.486;2023-07-20T13:19:54;4.82;;;2.40;;
53879;SDS011;39791;53.184;5.486;2023-07-20T13:22:20;4.22;;;2.78;;
53879;SDS011;39791;53.184;5.486;2023-07-20T13:24:46;3.95;;;2.50;;
53879;SDS011;39791;53.184;5.486;2023-07-20T13:27:15;9.63;;;2.90;;
53879;SDS011;39791;53.184;5.486;2023-07-20T13:29:41;4.38;;;2.63;;
53879;SDS011;39791;53.184;5.486;2023-07-20T13:32:07;5.43;;;2.55;;
53879;SDS011;39791;53.184;5.486;2023-07-20T13:34:33;3.00;;;2.30;;
53879;SDS011;39791;53.184;5.486;2023-07-20T13:36:59;5.00;;;2.65;;
53879;SDS011;39791;53.184;5.486;2023-07-20T13:39:25;5.07;;;2.63;;
53879;SDS011;39791;53.184;5.486;2023-07-20T13:41:53;3.13;;;2.53;;
53879;SDS011;39791;53.184;5.486;2023-07-20T13:44:19;3.80;;;2.30;;
53879;SDS011;39791;53.184;5.486;2023-07-20T13:46:46;3.63;;;2.08;;
53879;SDS011;39791;53.184;5.486;2023-07-20T13:49:12;6.72;;;2.10;;
53879;SDS011;39791;53.184;5.486;2023-07-20T13:51:37;2.92;;;2.03;;
53879;SDS011;39791;53.184;5.486;2023-07-20T13:54:03;3.38;;;2.00;;
53879;SDS011;39791;53.184;5.486;2023-07-20T13:56:28;2.75;;;1.92;;
53879;SDS011;39791;53.184;5.486;2023-07-20T13:58:54;6.20;;;2.45;;
53879;SDS011;39791;53.184;5.486;2023-07-20T14:01:20;3.50;;;2.30;;
53879;SDS011;39791;53.184;5.486;2023-07-20T14:03:48;2.70;;;1.98;;
53879;SDS011;39791;53.184;5.486;2023-07-20T14:06:14;2.75;;;1.98;;
53879;SDS011;39791;53.184;5.486;2023-07-20T14:08:39;3.47;;;2.20;;
53879;SDS011;39791;53.184;5.486;2023-07-20T14:11:06;2.38;;;1.80;;
53879;SDS011;39791;53.184;5.486;2023-07-20T14:13:32;3.03;;;2.10;;
53879;SDS011;39791;53.184;5.486;2023-07-20T14:15:58;1.92;;;1.65;;
53879;SDS011;39791;53.184;5.486;2023-07-20T14:18:23;2.67;;;1.65;;
53879;SDS011;39791;53.184;5.486;2023-07-20T14:20:49;5.90;;;2.25;;
53879;SDS011;39791;53.184;5.486;2023-07-20T14:23:15;4.40;;;2.05;;
53879;SDS011;39791;53.184;5.486;2023-07-20T14:25:40;2.08;;;1.80;;
53879;SDS011;39791;53.184;5.486;2023-07-20T14:28:07;3.03;;;1.73;;
53879;SDS011;39791;53.184;5.486;2023-07-20T14:30:33;3.47;;;1.90;;
53879;SDS011;39791;53.184;5.486;2023-07-20T14:32:58;2.60;;;1.65;;
53879;SDS011;39791;53.184;5.486;2023-07-20T14:35:24;5.07;;;2.10;;
53879;SDS011;39791;53.184;5.486;2023-07-20T14:37:49;2.20;;;1.73;;
53879;SDS011;39791;53.184;5.486;2023-07-20T14:40:15;4.28;;;2.00;;
53879;SDS011;39791;53.184;5.486;2023-07-20T14:42:41;2.22;;;1.60;;
53879;SDS011;39791;53.184;5.486;2023-07-20T14:45:06;2.65;;;1.73;;
53879;SDS011;39791;53.184;5.486;2023-07-20T14:47:33;3.70;;;1.80;;
53879;SDS011;39791;53.184;5.486;2023-07-20T14:50:00;3.15;;;1.65;;
53879;SDS011;39791;53.184;5.486;2023-07-20T14:52:27;3.38;;;1.90;;
53879;SDS011;39791;53.184;5.486;2023-07-20T14:54:53;2.53;;;1.70;;
53879;SDS011;39791;53.184;5.486;2023-07-20T14:57:19;1.73;;;1.50;;
53879;SDS011;39791;53.184;5.486;2023-07-20T14:59:45;2.75;;;1.83;;